sensor_id;sensor_type;location;lat;lon;timestamp;temperature;humidity
6443;DHT22;3254;47.372;8.512;2022-08-19T00:00:15;16.50;99.90
6443;DHT22;3254;47.372;8.512;2022-08-19T00:02:42;16.50;99.90
6443;DHT22;3254;47.372;8.512;2022-08-19T00:05:09;16.50;99.90
6443;DHT22;3254;47.372;8.512;2022-08-19T00:07:36;16.60;99.90
6443;DHT22;3254;47.372;8.512;2022-08-19T00:10:05;16.60;99.90
6443;DHT22;3254;47.372;8.512;2022-08-19T00:12:31;16.60;99.90
6443;DHT22;3254;47.372;8.512;2022-08-19T00:14:56;16.60;99.90
6443;DHT22;3254;47.372;8.512;2022-08-19T00:17:22;16.60;99.90
6443;DHT22;3254;47.372;8.512;2022-08-19T00:19:48;16.70;99.90
6443;DHT22;3254;47.372;8.512;2022-08-19T00:22:14;16.60;99.90
6443;DHT22;3254;47.372;8.512;2022-08-19T00:24:40;16.70;99.90
6443;DHT22;3254;47.372;8.512;2022-08-19T00:27:06;16.70;99.90
6443;DHT22;3254;47.372;8.512;2022-08-19T00:29:32;16.60;99.90
6443;DHT22;3254;47.372;8.512;2022-08-19T00:31:58;16.70;99.90
6443;DHT22;3254;47.372;8.512;2022-08-19T00:34:26;16.70;99.90
6443;DHT22;3254;47.372;8.512;2022-08-19T00:36:53;16.70;99.90
6443;DHT22;3254;47.372;8.512;2022-08-19T00:39:19;16.70;99.90
6443;DHT22;3254;47.372;8.512;2022-08-19T00:41:46;16.70;99.90
6443;DHT22;3254;47.372;8.512;2022-08-19T00:44:19;16.70;99.90
6443;DHT22;3254;47.372;8.512;2022-08-19T00:46:47;16.70;99.90
6443;DHT22;3254;47.372;8.512;2022-08-19T00:49:17;16.70;99.90
6443;DHT22;3254;47.372;8.512;2022-08-19T00:51:48;16.80;99.90
6443;DHT22;3254;47.372;8.512;2022-08-19T00:54:15;16.80;99.90
6443;DHT22;3254;47.372;8.512;2022-08-19T00:56:42;16.80;99.90
6443;DHT22;3254;47.372;8.512;2022-08-19T00:59:10;16.80;99.90
6443;DHT22;3254;47.372;8.512;2022-08-19T01:01:41;16.80;99.90
6443;DHT22;3254;47.372;8.512;2022-08-19T01:04:07;16.70;99.90
6443;DHT22;3254;47.372;8.512;2022-08-19T01:06:33;16.70;99.90
6443;DHT22;3254;47.372;8.512;2022-08-19T01:09:00;16.70;99.90
6443;DHT22;3254;47.372;8.512;2022-08-19T01:11:27;16.70;99.90
6443;DHT22;3254;47.372;8.512;2022-08-19T01:13:54;16.70;99.90
6443;DHT22;3254;47.372;8.512;2022-08-19T01:16:22;16.70;99.90
6443;DHT22;3254;47.372;8.512;2022-08-19T01:18:49;16.70;99.90
6443;DHT22;3254;47.372;8.512;2022-08-19T01:21:28;16.80;99.90
6443;DHT22;3254;47.372;8.512;2022-08-19T01:23:56;16.80;99.90
6443;DHT22;3254;47.372;8.512;2022-08-19T01:26:23;16.70;99.90
6443;DHT22;3254;47.372;8.512;2022-08-19T01:28:51;16.80;99.90
6443;DHT22;3254;47.372;8.512;2022-08-19T01:31:21;16.80;99.90
6443;DHT22;3254;47.372;8.512;2022-08-19T01:33:48;16.90;99.90
6443;DHT22;3254;47.372;8.512;2022-08-19T01:36:22;16.80;99.90
6443;DHT22;3254;47.372;8.512;2022-08-19T01:38:48;16.80;99.90
6443;DHT22;3254;47.372;8.512;2022-08-19T01:41:15;16.80;99.90
6443;DHT22;3254;47.372;8.512;2022-08-19T01:43:42;16.80;99.90
6443;DHT22;3254;47.372;8.512;2022-08-19T01:46:07;16.80;99.90
6443;DHT22;3254;47.372;8.512;2022-08-19T01:48:38;16.70;99.90
6443;DHT22;3254;47.372;8.512;2022-08-19T01:51:05;16.80;99.90
6443;DHT22;3254;47.372;8.512;2022-08-19T01:53:31;16.70;99.90
6443;DHT22;3254;47.372;8.512;2022-08-19T01:55:57;16.70;99.90
6443;DHT22;3254;47.372;8.512;2022-08-19T01:58:27;16.80;99.90
6443;DHT22;3254;47.372;8.512;2022-08-19T02:00:56;16.90;99.90
6443;DHT22;3254;47.372;8.512;2022-08-19T02:03:22;16.80;99.90
6443;DHT22;3254;47.372;8.512;2022-08-19T02:05:54;16.80;99.90
6443;DHT22;3254;47.372;8.512;2022-08-19T02:08:20;16.80;99.90
6443;DHT22;3254;47.372;8.512;2022-08-19T02:10:45;16.70;99.90
6443;DHT22;3254;47.372;8.512;2022-08-19T02:13:12;16.70;99.90
6443;DHT22;3254;47.372;8.512;2022-08-19T02:15:39;16.70;99.90
6443;DHT22;3254;47.372;8.512;2022-08-19T02:18:05;16.60;99.90
6443;DHT22;3254;47.372;8.512;2022-08-19T02:20:30;16.70;99.90
6443;DHT22;3254;47.372;8.512;2022-08-19T02:22:56;16.70;99.90
6443;DHT22;3254;47.372;8.512;2022-08-19T02:25:22;16.70;99.90
6443;DHT22;3254;47.372;8.512;2022-08-19T02:27:47;16.70;99.90
6443;DHT22;3254;47.372;8.512;2022-08-19T02:30:15;16.70;99.90
6443;DHT22;3254;47.372;8.512;2022-08-19T02:32:41;16.70;99.90
6443;DHT22;3254;47.372;8.512;2022-08-19T02:35:08;16.70;99.90
6443;DHT22;3254;47.372;8.512;2022-08-19T02:37:34;16.70;99.90
6443;DHT22;3254;47.372;8.512;2022-08-19T02:40:18;16.80;99.90
6443;DHT22;3254;47.372;8.512;2022-08-19T02:42:45;16.80;99.90
6443;DHT22;3254;47.372;8.512;2022-08-19T02:45:12;16.80;99.90
6443;DHT22;3254;47.372;8.512;2022-08-19T02:47:38;16.70;99.90
6443;DHT22;3254;47.372;8.512;2022-08-19T02:50:05;16.70;99.90
6443;DHT22;3254;47.372;8.512;2022-08-19T02:52:32;16.70;99.90
6443;DHT22;3254;47.372;8.512;2022-08-19T02:54:59;16.70;99.90
6443;DHT22;3254;47.372;8.512;2022-08-19T02:57:25;16.70;99.90
6443;DHT22;3254;47.372;8.512;2022-08-19T02:59:52;16.70;99.90
6443;DHT22;3254;47.372;8.512;2022-08-19T03:02:18;16.70;99.90
6443;DHT22;3254;47.372;8.512;2022-08-19T03:04:43;16.70;99.90
6443;DHT22;3254;47.372;8.512;2022-08-19T03:07:12;16.70;99.90
6443;DHT22;3254;47.372;8.512;2022-08-19T03:09:39;16.80;99.90
6443;DHT22;3254;47.372;8.512;2022-08-19T03:12:05;16.80;99.90
6443;DHT22;3254;47.372;8.512;2022-08-19T03:14:32;16.70;99.90
6443;DHT22;3254;47.372;8.512;2022-08-19T03:16:58;16.80;99.90
6443;DHT22;3254;47.372;8.512;2022-08-19T03:19:23;16.80;99.90
6443;DHT22;3254;47.372;8.512;2022-08-19T03:21:50;16.80;99.90
6443;DHT22;3254;47.372;8.512;2022-08-19T03:24:16;16.80;99.90
6443;DHT22;3254;47.372;8.512;2022-08-19T03:26:46;16.70;99.90
6443;DHT22;3254;47.372;8.512;2022-08-19T03:29:13;16.70;99.90
6443;DHT22;3254;47.372;8.512;2022-08-19T03:31:40;16.80;99.90
6443;DHT22;3254;47.372;8.512;2022-08-19T03:34:06;16.70;99.90
6443;DHT22;3254;47.372;8.512;2022-08-19T03:36:32;16.80;99.90
6443;DHT22;3254;47.372;8.512;2022-08-19T03:39:00;16.80;99.90
6443;DHT22;3254;47.372;8.512;2022-08-19T03:41:29;16.80;99.90
6443;DHT22;3254;47.372;8.512;2022-08-19T03:43:55;16.80;99.90
6443;DHT22;3254;47.372;8.512;2022-08-19T03:46:25;16.80;99.90
6443;DHT22;3254;47.372;8.512;2022-08-19T03:48:53;16.80;99.90
6443;DHT22;3254;47.372;8.512;2022-08-19T03:51:23;16.80;99.90
6443;DHT22;3254;47.372;8.512;2022-08-19T03:53:50;16.80;99.90
6443;DHT22;3254;47.372;8.512;2022-08-19T03:56:16;16.80;99.90
6443;DHT22;3254;47.372;8.512;2022-08-19T03:58:42;16.70;99.90
6443;DHT22;3254;47.372;8.512;2022-08-19T04:01:17;16.70;99.90
6443;DHT22;3254;47.372;8.512;2022-08-19T04:03:43;16.70;99.90
6443;DHT22;3254;47.372;8.512;2022-08-19T04:06:21;16.70;99.90
6443;DHT22;3254;47.372;8.512;2022-08-19T04:08:49;16.60;99.90
6443;DHT22;3254;47.372;8.512;2022-08-19T04:11:18;16.60;99.90
6443;DHT22;3254;47.372;8.512;2022-08-19T04:13:45;16.50;99.90
6443;DHT22;3254;47.372;8.512;2022-08-19T04:16:11;16.50;99.90
6443;DHT22;3254;47.372;8.512;2022-08-19T04:18:39;16.50;99.90
6443;DHT22;3254;47.372;8.512;2022-08-19T04:21:06;16.50;99.90
6443;DHT22;3254;47.372;8.512;2022-08-19T04:23:33;16.50;99.90
6443;DHT22;3254;47.372;8.512;2022-08-19T04:25:59;16.60;99.90
6443;DHT22;3254;47.372;8.512;2022-08-19T04:28:25;16.60;99.90
6443;DHT22;3254;47.372;8.512;2022-08-19T04:30:53;16.60;99.90
6443;DHT22;3254;47.372;8.512;2022-08-19T04:33:22;16.50;99.90
6443;DHT22;3254;47.372;8.512;2022-08-19T04:35:49;16.60;99.90
6443;DHT22;3254;47.372;8.512;2022-08-19T04:38:19;16.60;99.90
6443;DHT22;3254;47.372;8.512;2022-08-19T04:40:48;16.60;99.90
6443;DHT22;3254;47.372;8.512;2022-08-19T04:43:35;16.60;99.90
6443;DHT22;3254;47.372;8.512;2022-08-19T04:46:08;16.60;99.90
6443;DHT22;3254;47.372;8.512;2022-08-19T04:48:36;16.50;99.90
6443;DHT22;3254;47.372;8.512;2022-08-19T04:51:07;16.60;99.90
6443;DHT22;3254;47.372;8.512;2022-08-19T04:53:35;16.60;99.90
6443;DHT22;3254;47.372;8.512;2022-08-19T04:56:06;16.60;99.90
6443;DHT22;3254;47.372;8.512;2022-08-19T04:58:32;16.60;99.90
6443;DHT22;3254;47.372;8.512;2022-08-19T05:00:58;16.60;99.90
6443;DHT22;3254;47.372;8.512;2022-08-19T05:03:25;16.60;99.90
6443;DHT22;3254;47.372;8.512;2022-08-19T05:05:51;16.60;99.90
6443;DHT22;3254;47.372;8.512;2022-08-19T05:08:19;16.70;99.90
6443;DHT22;3254;47.372;8.512;2022-08-19T05:10:46;16.60;99.90
6443;DHT22;3254;47.372;8.512;2022-08-19T05:13:12;16.60;99.90
6443;DHT22;3254;47.372;8.512;2022-08-19T05:15:38;16.60;99.90
6443;DHT22;3254;47.372;8.512;2022-08-19T05:18:04;16.60;99.90
6443;DHT22;3254;47.372;8.512;2022-08-19T05:20:48;16.70;99.90
6443;DHT22;3254;47.372;8.512;2022-08-19T05:23:33;16.70;99.90
6443;DHT22;3254;47.372;8.512;2022-08-19T05:25:58;16.70;99.90
6443;DHT22;3254;47.372;8.512;2022-08-19T05:28:24;16.70;99.90
6443;DHT22;3254;47.372;8.512;2022-08-19T05:30:49;16.70;99.90
6443;DHT22;3254;47.372;8.512;2022-08-19T05:33:17;16.70;99.90
6443;DHT22;3254;47.372;8.512;2022-08-19T05:35:43;16.70;99.90
6443;DHT22;3254;47.372;8.512;2022-08-19T05:38:09;16.70;99.90
6443;DHT22;3254;47.372;8.512;2022-08-19T05:40:37;16.70;99.90
6443;DHT22;3254;47.372;8.512;2022-08-19T05:43:04;16.70;99.90
6443;DHT22;3254;47.372;8.512;2022-08-19T05:45:30;16.70;99.90
6443;DHT22;3254;47.372;8.512;2022-08-19T05:47:56;16.80;99.90
6443;DHT22;3254;47.372;8.512;2022-08-19T05:50:22;16.80;99.90
6443;DHT22;3254;47.372;8.512;2022-08-19T05:52:48;16.80;99.90
6443;DHT22;3254;47.372;8.512;2022-08-19T05:55:14;16.90;99.90
6443;DHT22;3254;47.372;8.512;2022-08-19T05:57:39;16.90;99.90
6443;DHT22;3254;47.372;8.512;2022-08-19T06:00:06;16.90;99.90
6443;DHT22;3254;47.372;8.512;2022-08-19T06:02:36;16.90;99.90
6443;DHT22;3254;47.372;8.512;2022-08-19T06:05:04;16.90;99.90
6443;DHT22;3254;47.372;8.512;2022-08-19T06:07:32;16.90;99.90
6443;DHT22;3254;47.372;8.512;2022-08-19T06:09:58;16.90;99.90
6443;DHT22;3254;47.372;8.512;2022-08-19T06:12:24;16.80;99.90
6443;DHT22;3254;47.372;8.512;2022-08-19T06:14:54;16.90;99.90
6443;DHT22;3254;47.372;8.512;2022-08-19T06:17:20;16.90;99.90
6443;DHT22;3254;47.372;8.512;2022-08-19T06:19:47;16.90;99.90
6443;DHT22;3254;47.372;8.512;2022-08-19T06:22:15;16.80;99.90
6443;DHT22;3254;47.372;8.512;2022-08-19T06:24:41;16.80;99.90
6443;DHT22;3254;47.372;8.512;2022-08-19T06:27:07;16.70;99.90
6443;DHT22;3254;47.372;8.512;2022-08-19T06:29:33;16.80;99.90
6443;DHT22;3254;47.372;8.512;2022-08-19T06:32:00;16.80;99.90
6443;DHT22;3254;47.372;8.512;2022-08-19T06:34:27;16.90;99.90
6443;DHT22;3254;47.372;8.512;2022-08-19T06:36:54;16.90;99.90
6443;DHT22;3254;47.372;8.512;2022-08-19T06:39:26;16.90;99.90
6443;DHT22;3254;47.372;8.512;2022-08-19T06:41:55;16.90;99.90
6443;DHT22;3254;47.372;8.512;2022-08-19T06:44:23;16.90;99.90
6443;DHT22;3254;47.372;8.512;2022-08-19T06:46:49;16.80;99.90
6443;DHT22;3254;47.372;8.512;2022-08-19T06:49:16;16.80;99.90
6443;DHT22;3254;47.372;8.512;2022-08-19T06:51:46;16.80;99.90
6443;DHT22;3254;47.372;8.512;2022-08-19T06:54:16;16.80;99.90
6443;DHT22;3254;47.372;8.512;2022-08-19T06:56:43;16.80;99.90
6443;DHT22;3254;47.372;8.512;2022-08-19T06:59:16;16.80;99.90
6443;DHT22;3254;47.372;8.512;2022-08-19T07:01:51;16.80;99.90
6443;DHT22;3254;47.372;8.512;2022-08-19T07:04:20;16.80;99.90
6443;DHT22;3254;47.372;8.512;2022-08-19T07:06:46;16.80;99.90
6443;DHT22;3254;47.372;8.512;2022-08-19T07:09:15;16.80;99.90
6443;DHT22;3254;47.372;8.512;2022-08-19T07:11:46;16.80;99.90
6443;DHT22;3254;47.372;8.512;2022-08-19T07:14:12;16.90;99.90
6443;DHT22;3254;47.372;8.512;2022-08-19T07:16:39;16.80;99.90
6443;DHT22;3254;47.372;8.512;2022-08-19T07:19:05;16.80;99.90
6443;DHT22;3254;47.372;8.512;2022-08-19T07:21:31;16.90;99.90
6443;DHT22;3254;47.372;8.512;2022-08-19T07:23:59;16.80;99.90
6443;DHT22;3254;47.372;8.512;2022-08-19T07:26:30;16.80;99.90
6443;DHT22;3254;47.372;8.512;2022-08-19T07:28:57;16.90;99.90
6443;DHT22;3254;47.372;8.512;2022-08-19T07:31:26;16.90;99.90
6443;DHT22;3254;47.372;8.512;2022-08-19T07:33:53;16.90;99.90
6443;DHT22;3254;47.372;8.512;2022-08-19T07:36:26;16.80;99.90
6443;DHT22;3254;47.372;8.512;2022-08-19T07:38:59;16.90;99.90
6443;DHT22;3254;47.372;8.512;2022-08-19T07:41:28;16.80;99.90
6443;DHT22;3254;47.372;8.512;2022-08-19T07:43:54;16.80;99.90
6443;DHT22;3254;47.372;8.512;2022-08-19T07:46:21;16.80;99.90
6443;DHT22;3254;47.372;8.512;2022-08-19T07:48:48;16.80;99.90
6443;DHT22;3254;47.372;8.512;2022-08-19T07:51:19;16.80;99.90
6443;DHT22;3254;47.372;8.512;2022-08-19T07:53:46;16.80;99.90
6443;DHT22;3254;47.372;8.512;2022-08-19T07:56:13;16.80;99.90
6443;DHT22;3254;47.372;8.512;2022-08-19T07:58:41;16.80;99.90
6443;DHT22;3254;47.372;8.512;2022-08-19T08:01:10;16.90;99.90
6443;DHT22;3254;47.372;8.512;2022-08-19T08:03:36;16.90;99.90
6443;DHT22;3254;47.372;8.512;2022-08-19T08:06:22;16.90;99.90
6443;DHT22;3254;47.372;8.512;2022-08-19T08:09:07;16.90;99.90
6443;DHT22;3254;47.372;8.512;2022-08-19T08:11:38;16.90;99.90
6443;DHT22;3254;47.372;8.512;2022-08-19T08:14:03;16.90;99.90
6443;DHT22;3254;47.372;8.512;2022-08-19T08:16:34;16.80;99.90
6443;DHT22;3254;47.372;8.512;2022-08-19T08:19:00;16.80;99.90
6443;DHT22;3254;47.372;8.512;2022-08-19T08:21:25;16.80;99.90
6443;DHT22;3254;47.372;8.512;2022-08-19T08:23:51;16.90;99.90
6443;DHT22;3254;47.372;8.512;2022-08-19T08:26:18;17.00;99.90
6443;DHT22;3254;47.372;8.512;2022-08-19T08:28:44;17.00;99.90
6443;DHT22;3254;47.372;8.512;2022-08-19T08:31:13;17.00;99.90
6443;DHT22;3254;47.372;8.512;2022-08-19T08:33:40;17.00;99.90
6443;DHT22;3254;47.372;8.512;2022-08-19T08:36:08;16.90;99.90
6443;DHT22;3254;47.372;8.512;2022-08-19T08:38:34;17.00;99.90
6443;DHT22;3254;47.372;8.512;2022-08-19T08:41:06;16.90;99.90
6443;DHT22;3254;47.372;8.512;2022-08-19T08:43:39;17.00;99.90
6443;DHT22;3254;47.372;8.512;2022-08-19T08:46:13;17.00;99.90
6443;DHT22;3254;47.372;8.512;2022-08-19T08:51:25;17.00;99.90
6443;DHT22;3254;47.372;8.512;2022-08-19T08:53:54;17.00;99.90
6443;DHT22;3254;47.372;8.512;2022-08-19T08:56:20;17.00;99.90
6443;DHT22;3254;47.372;8.512;2022-08-19T08:59:21;17.00;99.90
6443;DHT22;3254;47.372;8.512;2022-08-19T09:01:47;17.00;99.90
6443;DHT22;3254;47.372;8.512;2022-08-19T09:04:13;17.00;99.90
6443;DHT22;3254;47.372;8.512;2022-08-19T09:09:40;16.90;99.90
6443;DHT22;3254;47.372;8.512;2022-08-19T09:12:35;17.00;99.90
6443;DHT22;3254;47.372;8.512;2022-08-19T09:15:09;16.90;99.90
6443;DHT22;3254;47.372;8.512;2022-08-19T09:17:36;17.00;99.90
6443;DHT22;3254;47.372;8.512;2022-08-19T09:20:13;16.90;99.90
6443;DHT22;3254;47.372;8.512;2022-08-19T09:22:41;17.00;99.90
6443;DHT22;3254;47.372;8.512;2022-08-19T09:25:15;17.00;99.90
6443;DHT22;3254;47.372;8.512;2022-08-19T09:27:43;17.00;99.90
6443;DHT22;3254;47.372;8.512;2022-08-19T09:30:22;17.00;99.90
6443;DHT22;3254;47.372;8.512;2022-08-19T09:32:49;17.00;99.90
6443;DHT22;3254;47.372;8.512;2022-08-19T09:35:18;17.00;99.90
6443;DHT22;3254;47.372;8.512;2022-08-19T09:37:44;17.00;99.90
6443;DHT22;3254;47.372;8.512;2022-08-19T09:40:11;17.00;99.90
6443;DHT22;3254;47.372;8.512;2022-08-19T09:42:37;17.00;99.90
6443;DHT22;3254;47.372;8.512;2022-08-19T09:45:03;17.10;99.90
6443;DHT22;3254;47.372;8.512;2022-08-19T09:47:29;17.10;99.90
6443;DHT22;3254;47.372;8.512;2022-08-19T09:49:55;17.00;99.90
6443;DHT22;3254;47.372;8.512;2022-08-19T09:52:21;17.00;99.90
6443;DHT22;3254;47.372;8.512;2022-08-19T09:54:47;16.90;99.90
6443;DHT22;3254;47.372;8.512;2022-08-19T09:57:12;16.90;99.90
6443;DHT22;3254;47.372;8.512;2022-08-19T09:59:39;16.90;99.90
6443;DHT22;3254;47.372;8.512;2022-08-19T10:02:05;16.90;99.90
6443;DHT22;3254;47.372;8.512;2022-08-19T10:04:30;17.00;99.90
6443;DHT22;3254;47.372;8.512;2022-08-19T10:07:15;17.00;99.90
6443;DHT22;3254;47.372;8.512;2022-08-19T10:09:41;16.90;99.90
6443;DHT22;3254;47.372;8.512;2022-08-19T10:12:07;16.90;99.90
6443;DHT22;3254;47.372;8.512;2022-08-19T10:14:33;16.90;99.90
6443;DHT22;3254;47.372;8.512;2022-08-19T10:16:58;17.00;99.90
6443;DHT22;3254;47.372;8.512;2022-08-19T10:19:26;16.90;99.90
6443;DHT22;3254;47.372;8.512;2022-08-19T10:21:54;17.00;99.90
6443;DHT22;3254;47.372;8.512;2022-08-19T10:24:19;17.00;99.90
6443;DHT22;3254;47.372;8.512;2022-08-19T10:26:45;16.90;99.90
6443;DHT22;3254;47.372;8.512;2022-08-19T10:29:13;16.90;99.90
6443;DHT22;3254;47.372;8.512;2022-08-19T10:31:41;16.90;99.90
6443;DHT22;3254;47.372;8.512;2022-08-19T10:34:07;16.90;99.90
6443;DHT22;3254;47.372;8.512;2022-08-19T10:36:36;16.90;99.90
6443;DHT22;3254;47.372;8.512;2022-08-19T10:39:08;16.90;99.90
6443;DHT22;3254;47.372;8.512;2022-08-19T10:41:37;16.90;99.90
6443;DHT22;3254;47.372;8.512;2022-08-19T10:44:06;16.90;99.90
6443;DHT22;3254;47.372;8.512;2022-08-19T10:46:35;17.00;99.90
6443;DHT22;3254;47.372;8.512;2022-08-19T10:49:03;17.00;99.90
6443;DHT22;3254;47.372;8.512;2022-08-19T10:51:31;17.10;99.90
6443;DHT22;3254;47.372;8.512;2022-08-19T10:54:16;17.00;99.90
6443;DHT22;3254;47.372;8.512;2022-08-19T10:56:41;17.10;99.90
6443;DHT22;3254;47.372;8.512;2022-08-19T10:59:25;17.10;99.90
6443;DHT22;3254;47.372;8.512;2022-08-19T11:01:54;17.20;99.90
6443;DHT22;3254;47.372;8.512;2022-08-19T11:04:23;17.30;99.90
6443;DHT22;3254;47.372;8.512;2022-08-19T11:06:49;17.20;99.90
6443;DHT22;3254;47.372;8.512;2022-08-19T11:09:17;17.20;99.90
6443;DHT22;3254;47.372;8.512;2022-08-19T11:11:43;17.10;99.90
6443;DHT22;3254;47.372;8.512;2022-08-19T11:14:14;17.10;99.90
6443;DHT22;3254;47.372;8.512;2022-08-19T11:16:41;17.10;99.90
6443;DHT22;3254;47.372;8.512;2022-08-19T11:19:09;17.20;99.90
6443;DHT22;3254;47.372;8.512;2022-08-19T11:21:40;17.20;99.90
6443;DHT22;3254;47.372;8.512;2022-08-19T11:24:13;17.20;99.90
6443;DHT22;3254;47.372;8.512;2022-08-19T11:26:41;17.20;99.90
6443;DHT22;3254;47.372;8.512;2022-08-19T11:29:08;17.20;99.90
6443;DHT22;3254;47.372;8.512;2022-08-19T11:31:37;17.20;99.90
6443;DHT22;3254;47.372;8.512;2022-08-19T11:34:06;17.20;99.90
6443;DHT22;3254;47.372;8.512;2022-08-19T11:36:33;17.20;99.90
6443;DHT22;3254;47.372;8.512;2022-08-19T11:38:59;17.20;99.90
6443;DHT22;3254;47.372;8.512;2022-08-19T11:41:25;17.10;99.90
6443;DHT22;3254;47.372;8.512;2022-08-19T11:43:52;17.20;99.90
6443;DHT22;3254;47.372;8.512;2022-08-19T11:46:22;17.20;99.90
6443;DHT22;3254;47.372;8.512;2022-08-19T11:48:49;17.20;99.90
6443;DHT22;3254;47.372;8.512;2022-08-19T11:51:19;17.20;99.90
6443;DHT22;3254;47.372;8.512;2022-08-19T11:53:46;17.10;99.90
6443;DHT22;3254;47.372;8.512;2022-08-19T11:56:12;17.20;99.90
6443;DHT22;3254;47.372;8.512;2022-08-19T11:58:40;17.30;99.90
6443;DHT22;3254;47.372;8.512;2022-08-19T12:01:14;17.30;99.90
6443;DHT22;3254;47.372;8.512;2022-08-19T12:03:44;17.30;99.90
6443;DHT22;3254;47.372;8.512;2022-08-19T12:06:14;17.20;99.90
6443;DHT22;3254;47.372;8.512;2022-08-19T12:08:41;17.30;99.90
6443;DHT22;3254;47.372;8.512;2022-08-19T12:11:07;17.40;99.90
6443;DHT22;3254;47.372;8.512;2022-08-19T12:13:34;17.50;99.90
6443;DHT22;3254;47.372;8.512;2022-08-19T12:15:59;17.60;99.90
6443;DHT22;3254;47.372;8.512;2022-08-19T12:18:26;17.70;99.90
6443;DHT22;3254;47.372;8.512;2022-08-19T12:20:53;17.90;99.90
6443;DHT22;3254;47.372;8.512;2022-08-19T12:23:20;17.90;99.90
6443;DHT22;3254;47.372;8.512;2022-08-19T12:25:47;18.10;99.90
6443;DHT22;3254;47.372;8.512;2022-08-19T12:28:18;18.00;99.90
6443;DHT22;3254;47.372;8.512;2022-08-19T12:30:44;17.90;99.90
6443;DHT22;3254;47.372;8.512;2022-08-19T12:33:10;17.70;99.90
6443;DHT22;3254;47.372;8.512;2022-08-19T12:35:40;17.60;99.90
6443;DHT22;3254;47.372;8.512;2022-08-19T12:38:06;17.50;99.90
6443;DHT22;3254;47.372;8.512;2022-08-19T12:40:32;17.40;99.90
6443;DHT22;3254;47.372;8.512;2022-08-19T12:42:57;17.50;99.90
6443;DHT22;3254;47.372;8.512;2022-08-19T12:45:23;17.60;99.90
6443;DHT22;3254;47.372;8.512;2022-08-19T12:47:48;17.60;99.90
6443;DHT22;3254;47.372;8.512;2022-08-19T12:50:14;17.60;99.90
6443;DHT22;3254;47.372;8.512;2022-08-19T12:52:40;17.60;99.90
6443;DHT22;3254;47.372;8.512;2022-08-19T12:55:08;17.70;99.90
6443;DHT22;3254;47.372;8.512;2022-08-19T12:57:34;17.60;99.90
6443;DHT22;3254;47.372;8.512;2022-08-19T13:00:10;17.70;99.90
6443;DHT22;3254;47.372;8.512;2022-08-19T13:02:43;17.70;99.90
6443;DHT22;3254;47.372;8.512;2022-08-19T13:05:14;17.70;99.90
6443;DHT22;3254;47.372;8.512;2022-08-19T13:07:41;17.70;99.90
6443;DHT22;3254;47.372;8.512;2022-08-19T13:10:10;17.70;99.90
6443;DHT22;3254;47.372;8.512;2022-08-19T13:12:38;17.60;99.90
6443;DHT22;3254;47.372;8.512;2022-08-19T13:15:04;17.70;99.90
6443;DHT22;3254;47.372;8.512;2022-08-19T13:17:30;17.80;99.90
6443;DHT22;3254;47.372;8.512;2022-08-19T13:19:56;17.80;99.90
6443;DHT22;3254;47.372;8.512;2022-08-19T13:22:21;17.80;99.90
6443;DHT22;3254;47.372;8.512;2022-08-19T13:24:47;17.90;99.90
6443;DHT22;3254;47.372;8.512;2022-08-19T13:27:13;18.00;99.90
6443;DHT22;3254;47.372;8.512;2022-08-19T13:29:40;17.90;99.90
6443;DHT22;3254;47.372;8.512;2022-08-19T13:32:24;18.00;99.90
6443;DHT22;3254;47.372;8.512;2022-08-19T13:35:09;17.90;99.90
6443;DHT22;3254;47.372;8.512;2022-08-19T13:37:34;17.90;99.90
6443;DHT22;3254;47.372;8.512;2022-08-19T13:40:18;18.10;99.90
6443;DHT22;3254;47.372;8.512;2022-08-19T13:42:47;18.10;99.90
6443;DHT22;3254;47.372;8.512;2022-08-19T13:45:16;18.00;99.90
6443;DHT22;3254;47.372;8.512;2022-08-19T13:47:49;18.00;99.90
6443;DHT22;3254;47.372;8.512;2022-08-19T13:50:23;18.20;99.90
6443;DHT22;3254;47.372;8.512;2022-08-19T13:52:51;18.30;99.90
6443;DHT22;3254;47.372;8.512;2022-08-19T13:55:17;18.20;99.90
6443;DHT22;3254;47.372;8.512;2022-08-19T13:57:43;18.20;99.90
6443;DHT22;3254;47.372;8.512;2022-08-19T14:00:16;18.20;99.90
6443;DHT22;3254;47.372;8.512;2022-08-19T14:02:44;18.10;99.90
6443;DHT22;3254;47.372;8.512;2022-08-19T14:05:13;18.10;99.90
6443;DHT22;3254;47.372;8.512;2022-08-19T14:07:39;18.20;99.90
6443;DHT22;3254;47.372;8.512;2022-08-19T14:10:07;18.40;99.90
6443;DHT22;3254;47.372;8.512;2022-08-19T14:12:33;18.30;99.90
6443;DHT22;3254;47.372;8.512;2022-08-19T14:14:59;18.40;99.90
6443;DHT22;3254;47.372;8.512;2022-08-19T14:17:25;18.60;99.90
6443;DHT22;3254;47.372;8.512;2022-08-19T14:19:58;18.90;99.90
6443;DHT22;3254;47.372;8.512;2022-08-19T14:22:26;18.80;99.90
6443;DHT22;3254;47.372;8.512;2022-08-19T14:24:51;18.90;99.90
6443;DHT22;3254;47.372;8.512;2022-08-19T14:27:17;19.00;99.90
6443;DHT22;3254;47.372;8.512;2022-08-19T14:29:43;19.20;99.90
6443;DHT22;3254;47.372;8.512;2022-08-19T14:32:09;19.40;99.90
6443;DHT22;3254;47.372;8.512;2022-08-19T14:34:35;19.20;99.90
6443;DHT22;3254;47.372;8.512;2022-08-19T14:37:02;19.20;99.90
6443;DHT22;3254;47.372;8.512;2022-08-19T14:39:28;18.90;99.90
6443;DHT22;3254;47.372;8.512;2022-08-19T14:41:53;19.00;99.90
6443;DHT22;3254;47.372;8.512;2022-08-19T14:44:19;19.10;99.90
6443;DHT22;3254;47.372;8.512;2022-08-19T14:46:45;18.90;99.90
6443;DHT22;3254;47.372;8.512;2022-08-19T14:49:10;19.10;99.90
6443;DHT22;3254;47.372;8.512;2022-08-19T14:51:36;19.40;99.90
6443;DHT22;3254;47.372;8.512;2022-08-19T14:54:02;19.50;99.90
6443;DHT22;3254;47.372;8.512;2022-08-19T14:56:29;19.40;99.90
6443;DHT22;3254;47.372;8.512;2022-08-19T14:58:56;19.50;99.90
6443;DHT22;3254;47.372;8.512;2022-08-19T15:01:24;19.50;99.90
6443;DHT22;3254;47.372;8.512;2022-08-19T15:03:52;19.60;99.90
6443;DHT22;3254;47.372;8.512;2022-08-19T15:06:19;19.60;99.90
6443;DHT22;3254;47.372;8.512;2022-08-19T15:08:45;19.70;99.90
6443;DHT22;3254;47.372;8.512;2022-08-19T15:11:13;19.80;99.90
6443;DHT22;3254;47.372;8.512;2022-08-19T15:13:40;19.80;99.90
6443;DHT22;3254;47.372;8.512;2022-08-19T15:16:06;19.80;99.90
6443;DHT22;3254;47.372;8.512;2022-08-19T15:18:32;19.70;99.90
6443;DHT22;3254;47.372;8.512;2022-08-19T15:20:58;19.70;99.90
6443;DHT22;3254;47.372;8.512;2022-08-19T15:23:24;19.70;99.90
6443;DHT22;3254;47.372;8.512;2022-08-19T15:25:50;19.90;99.90
6443;DHT22;3254;47.372;8.512;2022-08-19T15:28:24;20.10;99.90
6443;DHT22;3254;47.372;8.512;2022-08-19T15:30:51;19.80;99.90
6443;DHT22;3254;47.372;8.512;2022-08-19T15:33:18;19.70;99.90
6443;DHT22;3254;47.372;8.512;2022-08-19T15:35:45;19.70;99.90
6443;DHT22;3254;47.372;8.512;2022-08-19T15:38:11;19.90;99.90
6443;DHT22;3254;47.372;8.512;2022-08-19T15:40:41;19.90;99.90
6443;DHT22;3254;47.372;8.512;2022-08-19T15:43:07;19.90;99.90
6443;DHT22;3254;47.372;8.512;2022-08-19T15:45:33;19.80;99.90
6443;DHT22;3254;47.372;8.512;2022-08-19T15:48:00;19.90;99.90
6443;DHT22;3254;47.372;8.512;2022-08-19T15:50:26;20.00;99.90
6443;DHT22;3254;47.372;8.512;2022-08-19T15:52:55;20.00;99.90
6443;DHT22;3254;47.372;8.512;2022-08-19T15:55:24;20.10;99.90
6443;DHT22;3254;47.372;8.512;2022-08-19T15:57:51;19.90;99.90
6443;DHT22;3254;47.372;8.512;2022-08-19T16:00:35;20.00;99.90
6443;DHT22;3254;47.372;8.512;2022-08-19T16:03:19;20.10;99.90
6443;DHT22;3254;47.372;8.512;2022-08-19T16:06:04;20.10;99.90
6443;DHT22;3254;47.372;8.512;2022-08-19T16:08:58;20.10;99.90
6443;DHT22;3254;47.372;8.512;2022-08-19T16:11:28;20.00;99.90
6443;DHT22;3254;47.372;8.512;2022-08-19T16:13:56;20.10;99.90